sensor_id;sensor_type;location;lat;lon;timestamp;P1;durP1;ratioP1;P2;durP2;ratioP2
75234;SDS011;63817;51.228;-1.472;2023-07-02T00:02:07;62.80;;;18.25;;
75234;SDS011;63817;51.228;-1.472;2023-07-02T00:04:33;69.03;;;16.55;;
75234;SDS011;63817;51.228;-1.472;2023-07-02T00:06:58;49.75;;;16.55;;
75234;SDS011;63817;51.228;-1.472;2023-07-02T00:09:23;68.20;;;18.13;;
75234;SDS011;63817;51.228;-1.472;2023-07-02T00:11:49;68.53;;;17.50;;
75234;SDS011;63817;51.228;-1.472;2023-07-02T00:14:14;59.45;;;16.75;;
75234;SDS011;63817;51.228;-1.472;2023-07-02T00:16:42;61.22;;;16.45;;
75234;SDS011;63817;51.228;-1.472;2023-07-02T00:19:09;62.75;;;17.58;;
75234;SDS011;63817;51.228;-1.472;2023-07-02T00:21:34;57.00;;;17.50;;
75234;SDS011;63817;51.228;-1.472;2023-07-02T00:24:02;57.25;;;17.58;;
75234;SDS011;63817;51.228;-1.472;2023-07-02T00:26:28;49.30;;;15.85;;
75234;SDS011;63817;51.228;-1.472;2023-07-02T00:28:54;57.75;;;15.52;;
75234;SDS011;63817;51.228;-1.472;2023-07-02T00:31:20;58.92;;;15.98;;
75234;SDS011;63817;51.228;-1.472;2023-07-02T00:33:46;70.85;;;18.25;;
75234;SDS011;63817;51.228;-1.472;2023-07-02T00:36:12;62.00;;;17.73;;
75234;SDS011;63817;51.228;-1.472;2023-07-02T00:38:42;56.47;;;16.77;;
75234;SDS011;63817;51.228;-1.472;2023-07-02T00:41:09;60.28;;;16.55;;
75234;SDS011;63817;51.228;-1.472;2023-07-02T00:43:35;58.65;;;18.52;;
75234;SDS011;63817;51.228;-1.472;2023-07-02T00:46:00;60.30;;;16.45;;
75234;SDS011;63817;51.228;-1.472;2023-07-02T00:48:26;56.50;;;16.02;;
75234;SDS011;63817;51.228;-1.472;2023-07-02T00:50:51;55.30;;;16.70;;
75234;SDS011;63817;51.228;-1.472;2023-07-02T00:53:17;57.47;;;16.65;;
75234;SDS011;63817;51.228;-1.472;2023-07-02T00:55:42;52.40;;;17.00;;
75234;SDS011;63817;51.228;-1.472;2023-07-02T00:58:08;50.90;;;17.98;;
75234;SDS011;63817;51.228;-1.472;2023-07-02T01:00:34;52.53;;;16.52;;
75234;SDS011;63817;51.228;-1.472;2023-07-02T01:03:00;51.30;;;16.83;;
75234;SDS011;63817;51.228;-1.472;2023-07-02T01:05:26;51.47;;;15.57;;
75234;SDS011;63817;51.228;-1.472;2023-07-02T01:07:57;58.58;;;15.15;;
75234;SDS011;63817;51.228;-1.472;2023-07-02T01:10:22;56.22;;;15.13;;
75234;SDS011;63817;51.228;-1.472;2023-07-02T01:12:48;50.67;;;16.98;;
75234;SDS011;63817;51.228;-1.472;2023-07-02T01:15:13;64.47;;;15.52;;
75234;SDS011;63817;51.228;-1.472;2023-07-02T01:17:39;58.45;;;15.85;;
75234;SDS011;63817;51.228;-1.472;2023-07-02T01:20:08;55.80;;;16.58;;
75234;SDS011;63817;51.228;-1.472;2023-07-02T01:22:35;50.33;;;15.73;;
75234;SDS011;63817;51.228;-1.472;2023-07-02T01:25:00;46.80;;;16.48;;
75234;SDS011;63817;51.228;-1.472;2023-07-02T01:27:29;58.38;;;17.75;;
75234;SDS011;63817;51.228;-1.472;2023-07-02T01:29:55;60.88;;;17.63;;
75234;SDS011;63817;51.228;-1.472;2023-07-02T01:32:21;58.55;;;16.98;;
75234;SDS011;63817;51.228;-1.472;2023-07-02T01:34:47;68.72;;;17.00;;
75234;SDS011;63817;51.228;-1.472;2023-07-02T01:37:14;53.20;;;15.80;;
75234;SDS011;63817;51.228;-1.472;2023-07-02T01:39:40;47.83;;;16.52;;
75234;SDS011;63817;51.228;-1.472;2023-07-02T01:42:09;52.50;;;15.02;;
75234;SDS011;63817;51.228;-1.472;2023-07-02T01:44:36;58.50;;;16.17;;
75234;SDS011;63817;51.228;-1.472;2023-07-02T01:47:02;52.08;;;15.52;;
75234;SDS011;63817;51.228;-1.472;2023-07-02T01:49:28;50.28;;;16.80;;
75234;SDS011;63817;51.228;-1.472;2023-07-02T01:51:54;46.80;;;15.68;;
75234;SDS011;63817;51.228;-1.472;2023-07-02T01:54:22;60.15;;;16.75;;
75234;SDS011;63817;51.228;-1.472;2023-07-02T01:56:48;40.30;;;15.80;;
75234;SDS011;63817;51.228;-1.472;2023-07-02T01:59:14;58.67;;;16.23;;
75234;SDS011;63817;51.228;-1.472;2023-07-02T02:01:40;53.60;;;17.17;;
75234;SDS011;63817;51.228;-1.472;2023-07-02T02:04:09;46.67;;;16.88;;
75234;SDS011;63817;51.228;-1.472;2023-07-02T02:06:35;63.10;;;16.75;;
75234;SDS011;63817;51.228;-1.472;2023-07-02T02:09:01;49.50;;;15.45;;
75234;SDS011;63817;51.228;-1.472;2023-07-02T02:11:28;58.53;;;18.08;;
75234;SDS011;63817;51.228;-1.472;2023-07-02T02:13:53;48.25;;;17.13;;
75234;SDS011;63817;51.228;-1.472;2023-07-02T02:16:19;57.60;;;16.98;;
75234;SDS011;63817;51.228;-1.472;2023-07-02T02:18:45;56.05;;;17.48;;
75234;SDS011;63817;51.228;-1.472;2023-07-02T02:21:10;54.58;;;16.63;;
75234;SDS011;63817;51.228;-1.472;2023-07-02T02:23:35;53.55;;;16.20;;
75234;SDS011;63817;51.228;-1.472;2023-07-02T02:26:01;48.85;;;16.45;;
75234;SDS011;63817;51.228;-1.472;2023-07-02T02:28:26;54.97;;;16.08;;
75234;SDS011;63817;51.228;-1.472;2023-07-02T02:30:52;62.50;;;16.48;;
75234;SDS011;63817;51.228;-1.472;2023-07-02T02:33:17;44.83;;;15.30;;
75234;SDS011;63817;51.228;-1.472;2023-07-02T02:35:42;48.03;;;15.63;;
75234;SDS011;63817;51.228;-1.472;2023-07-02T02:38:08;44.78;;;14.38;;
75234;SDS011;63817;51.228;-1.472;2023-07-02T02:40:33;49.17;;;17.33;;
75234;SDS011;63817;51.228;-1.472;2023-07-02T02:42:59;50.00;;;14.77;;
75234;SDS011;63817;51.228;-1.472;2023-07-02T02:45:25;53.60;;;15.52;;
75234;SDS011;63817;51.228;-1.472;2023-07-02T02:47:50;45.58;;;14.77;;
75234;SDS011;63817;51.228;-1.472;2023-07-02T02:50:16;52.00;;;16.20;;
75234;SDS011;63817;51.228;-1.472;2023-07-02T02:52:41;50.70;;;16.75;;
75234;SDS011;63817;51.228;-1.472;2023-07-02T02:55:07;51.17;;;16.13;;
75234;SDS011;63817;51.228;-1.472;2023-07-02T02:57:34;47.45;;;15.73;;
75234;SDS011;63817;51.228;-1.472;2023-07-02T02:59:59;57.88;;;16.67;;
75234;SDS011;63817;51.228;-1.472;2023-07-02T03:02:24;50.35;;;15.80;;
75234;SDS011;63817;51.228;-1.472;2023-07-02T03:04:50;58.03;;;16.98;;
75234;SDS011;63817;51.228;-1.472;2023-07-02T03:07:15;55.25;;;17.17;;
75234;SDS011;63817;51.228;-1.472;2023-07-02T03:09:41;43.88;;;15.65;;
75234;SDS011;63817;51.228;-1.472;2023-07-02T03:12:06;59.35;;;16.15;;
75234;SDS011;63817;51.228;-1.472;2023-07-02T03:14:32;51.78;;;16.30;;
75234;SDS011;63817;51.228;-1.472;2023-07-02T03:16:57;46.42;;;15.95;;
75234;SDS011;63817;51.228;-1.472;2023-07-02T03:19:23;49.72;;;15.57;;
75234;SDS011;63817;51.228;-1.472;2023-07-02T03:21:49;50.88;;;15.45;;
75234;SDS011;63817;51.228;-1.472;2023-07-02T03:24:14;47.38;;;14.00;;
75234;SDS011;63817;51.228;-1.472;2023-07-02T03:26:41;53.33;;;15.05;;
75234;SDS011;63817;51.228;-1.472;2023-07-02T03:29:09;51.53;;;16.77;;
75234;SDS011;63817;51.228;-1.472;2023-07-02T03:31:35;52.60;;;17.08;;
75234;SDS011;63817;51.228;-1.472;2023-07-02T03:34:05;51.63;;;15.73;;
75234;SDS011;63817;51.228;-1.472;2023-07-02T03:36:32;41.08;;;14.98;;
75234;SDS011;63817;51.228;-1.472;2023-07-02T03:38:58;48.28;;;15.23;;
75234;SDS011;63817;51.228;-1.472;2023-07-02T03:41:23;41.90;;;15.35;;
75234;SDS011;63817;51.228;-1.472;2023-07-02T03:43:48;50.53;;;15.63;;
75234;SDS011;63817;51.228;-1.472;2023-07-02T03:46:14;55.20;;;15.95;;
75234;SDS011;63817;51.228;-1.472;2023-07-02T03:48:39;49.65;;;14.13;;
75234;SDS011;63817;51.228;-1.472;2023-07-02T03:51:05;43.38;;;14.25;;
75234;SDS011;63817;51.228;-1.472;2023-07-02T03:53:31;54.72;;;16.50;;
75234;SDS011;63817;51.228;-1.472;2023-07-02T03:55:56;55.15;;;15.68;;
75234;SDS011;63817;51.228;-1.472;2023-07-02T03:58:21;48.13;;;13.48;;
75234;SDS011;63817;51.228;-1.472;2023-07-02T04:00:47;46.67;;;14.20;;
75234;SDS011;63817;51.228;-1.472;2023-07-02T04:03:14;52.58;;;17.13;;
75234;SDS011;63817;51.228;-1.472;2023-07-02T04:05:41;44.10;;;14.65;;
75234;SDS011;63817;51.228;-1.472;2023-07-02T04:08:06;63.10;;;16.75;;
75234;SDS011;63817;51.228;-1.472;2023-07-02T04:10:31;48.13;;;14.15;;
75234;SDS011;63817;51.228;-1.472;2023-07-02T04:12:57;45.58;;;15.30;;
75234;SDS011;63817;51.228;-1.472;2023-07-02T04:15:22;42.60;;;13.85;;
75234;SDS011;63817;51.228;-1.472;2023-07-02T04:17:49;50.78;;;16.17;;
75234;SDS011;63817;51.228;-1.472;2023-07-02T04:20:14;46.08;;;15.48;;
75234;SDS011;63817;51.228;-1.472;2023-07-02T04:22:40;46.53;;;15.80;;
75234;SDS011;63817;51.228;-1.472;2023-07-02T04:25:05;41.90;;;14.00;;
75234;SDS011;63817;51.228;-1.472;2023-07-02T04:27:31;41.50;;;14.18;;
75234;SDS011;63817;51.228;-1.472;2023-07-02T04:29:56;51.75;;;15.23;;
75234;SDS011;63817;51.228;-1.472;2023-07-02T04:32:22;48.67;;;15.25;;
75234;SDS011;63817;51.228;-1.472;2023-07-02T04:34:47;39.58;;;14.55;;
75234;SDS011;63817;51.228;-1.472;2023-07-02T04:37:12;35.72;;;13.52;;
75234;SDS011;63817;51.228;-1.472;2023-07-02T04:39:40;55.00;;;14.23;;
75234;SDS011;63817;51.228;-1.472;2023-07-02T04:42:06;40.53;;;13.02;;
75234;SDS011;63817;51.228;-1.472;2023-07-02T04:44:31;41.67;;;13.65;;
75234;SDS011;63817;51.228;-1.472;2023-07-02T04:46:57;39.83;;;12.70;;
75234;SDS011;63817;51.228;-1.472;2023-07-02T04:49:23;47.13;;;15.48;;
75234;SDS011;63817;51.228;-1.472;2023-07-02T04:51:49;43.78;;;13.55;;
75234;SDS011;63817;51.228;-1.472;2023-07-02T04:54:14;46.72;;;13.48;;
75234;SDS011;63817;51.228;-1.472;2023-07-02T04:56:40;46.08;;;12.85;;
75234;SDS011;63817;51.228;-1.472;2023-07-02T04:59:05;47.03;;;13.02;;
75234;SDS011;63817;51.228;-1.472;2023-07-02T05:01:30;36.47;;;13.00;;
75234;SDS011;63817;51.228;-1.472;2023-07-02T05:03:56;39.00;;;12.80;;
75234;SDS011;63817;51.228;-1.472;2023-07-02T05:06:21;48.30;;;13.18;;
75234;SDS011;63817;51.228;-1.472;2023-07-02T05:08:47;48.70;;;13.77;;
75234;SDS011;63817;51.228;-1.472;2023-07-02T05:11:12;35.97;;;13.00;;
75234;SDS011;63817;51.228;-1.472;2023-07-02T05:13:37;39.58;;;12.27;;
75234;SDS011;63817;51.228;-1.472;2023-07-02T05:16:03;37.40;;;12.73;;
75234;SDS011;63817;51.228;-1.472;2023-07-02T05:18:28;48.33;;;14.10;;
75234;SDS011;63817;51.228;-1.472;2023-07-02T05:20:54;41.45;;;13.15;;
75234;SDS011;63817;51.228;-1.472;2023-07-02T05:23:19;36.17;;;12.50;;
75234;SDS011;63817;51.228;-1.472;2023-07-02T05:25:44;38.72;;;11.65;;
75234;SDS011;63817;51.228;-1.472;2023-07-02T05:28:11;39.47;;;11.80;;
75234;SDS011;63817;51.228;-1.472;2023-07-02T05:30:36;40.78;;;12.45;;
75234;SDS011;63817;51.228;-1.472;2023-07-02T05:33:01;39.50;;;12.82;;
75234;SDS011;63817;51.228;-1.472;2023-07-02T05:35:27;33.20;;;12.50;;
75234;SDS011;63817;51.228;-1.472;2023-07-02T05:37:52;43.63;;;12.95;;
75234;SDS011;63817;51.228;-1.472;2023-07-02T05:40:17;33.80;;;10.95;;
75234;SDS011;63817;51.228;-1.472;2023-07-02T05:42:43;39.38;;;11.98;;
75234;SDS011;63817;51.228;-1.472;2023-07-02T05:45:08;42.00;;;12.93;;
75234;SDS011;63817;51.228;-1.472;2023-07-02T05:47:34;42.17;;;12.25;;
75234;SDS011;63817;51.228;-1.472;2023-07-02T05:49:59;40.25;;;12.65;;
75234;SDS011;63817;51.228;-1.472;2023-07-02T05:52:25;41.33;;;12.07;;
75234;SDS011;63817;51.228;-1.472;2023-07-02T05:54:50;41.22;;;12.85;;
75234;SDS011;63817;51.228;-1.472;2023-07-02T05:57:16;40.00;;;11.50;;
75234;SDS011;63817;51.228;-1.472;2023-07-02T05:59:41;29.92;;;11.05;;
75234;SDS011;63817;51.228;-1.472;2023-07-02T06:02:06;42.70;;;10.88;;
75234;SDS011;63817;51.228;-1.472;2023-07-02T06:04:32;38.83;;;11.32;;
75234;SDS011;63817;51.228;-1.472;2023-07-02T06:06:57;41.50;;;12.18;;
75234;SDS011;63817;51.228;-1.472;2023-07-02T06:09:23;35.58;;;10.13;;
75234;SDS011;63817;51.228;-1.472;2023-07-02T06:11:48;34.72;;;10.88;;
75234;SDS011;63817;51.228;-1.472;2023-07-02T06:14:13;36.83;;;10.68;;
75234;SDS011;63817;51.228;-1.472;2023-07-02T06:16:39;37.17;;;10.82;;
75234;SDS011;63817;51.228;-1.472;2023-07-02T06:19:04;32.35;;;10.95;;
75234;SDS011;63817;51.228;-1.472;2023-07-02T06:21:30;37.80;;;10.25;;
75234;SDS011;63817;51.228;-1.472;2023-07-02T06:23:56;36.72;;;11.10;;
75234;SDS011;63817;51.228;-1.472;2023-07-02T06:26:23;31.48;;;9.43;;
75234;SDS011;63817;51.228;-1.472;2023-07-02T06:28:48;31.30;;;9.38;;
75234;SDS011;63817;51.228;-1.472;2023-07-02T06:31:13;31.10;;;9.00;;
75234;SDS011;63817;51.228;-1.472;2023-07-02T06:33:39;36.70;;;9.15;;
75234;SDS011;63817;51.228;-1.472;2023-07-02T06:36:08;29.42;;;8.85;;
75234;SDS011;63817;51.228;-1.472;2023-07-02T06:38:33;26.00;;;8.40;;
75234;SDS011;63817;51.228;-1.472;2023-07-02T06:40:59;29.98;;;9.38;;
75234;SDS011;63817;51.228;-1.472;2023-07-02T06:43:24;27.92;;;8.50;;
75234;SDS011;63817;51.228;-1.472;2023-07-02T06:45:49;32.28;;;10.07;;
75234;SDS011;63817;51.228;-1.472;2023-07-02T06:48:15;29.38;;;9.65;;
75234;SDS011;63817;51.228;-1.472;2023-07-02T06:50:45;34.60;;;8.63;;
75234;SDS011;63817;51.228;-1.472;2023-07-02T06:53:11;31.13;;;9.15;;
75234;SDS011;63817;51.228;-1.472;2023-07-02T06:55:36;29.58;;;8.45;;
75234;SDS011;63817;51.228;-1.472;2023-07-02T06:58:04;25.20;;;8.02;;
75234;SDS011;63817;51.228;-1.472;2023-07-02T07:00:33;33.63;;;7.90;;
75234;SDS011;63817;51.228;-1.472;2023-07-02T07:03:05;30.88;;;8.27;;
75234;SDS011;63817;51.228;-1.472;2023-07-02T07:05:30;29.95;;;8.55;;
75234;SDS011;63817;51.228;-1.472;2023-07-02T07:07:56;32.80;;;8.60;;
75234;SDS011;63817;51.228;-1.472;2023-07-02T07:10:22;28.13;;;7.85;;
75234;SDS011;63817;51.228;-1.472;2023-07-02T07:12:48;27.38;;;8.65;;
75234;SDS011;63817;51.228;-1.472;2023-07-02T07:15:13;26.15;;;7.47;;
75234;SDS011;63817;51.228;-1.472;2023-07-02T07:17:39;25.65;;;7.45;;
75234;SDS011;63817;51.228;-1.472;2023-07-02T07:20:04;22.95;;;6.70;;
75234;SDS011;63817;51.228;-1.472;2023-07-02T07:22:30;20.92;;;7.07;;
75234;SDS011;63817;51.228;-1.472;2023-07-02T07:24:56;26.98;;;8.40;;
75234;SDS011;63817;51.228;-1.472;2023-07-02T07:27:21;23.27;;;7.20;;
75234;SDS011;63817;51.228;-1.472;2023-07-02T07:29:47;23.10;;;6.47;;
75234;SDS011;63817;51.228;-1.472;2023-07-02T07:32:12;23.20;;;7.78;;
75234;SDS011;63817;51.228;-1.472;2023-07-02T07:34:37;24.55;;;7.50;;
75234;SDS011;63817;51.228;-1.472;2023-07-02T07:37:03;25.80;;;6.88;;
75234;SDS011;63817;51.228;-1.472;2023-07-02T07:39:29;21.88;;;6.85;;
75234;SDS011;63817;51.228;-1.472;2023-07-02T07:41:54;22.00;;;6.88;;
75234;SDS011;63817;51.228;-1.472;2023-07-02T07:44:20;23.65;;;7.40;;
75234;SDS011;63817;51.228;-1.472;2023-07-02T07:46:45;24.73;;;6.93;;
75234;SDS011;63817;51.228;-1.472;2023-07-02T07:49:11;20.60;;;6.45;;
75234;SDS011;63817;51.228;-1.472;2023-07-02T07:51:38;24.50;;;7.75;;
75234;SDS011;63817;51.228;-1.472;2023-07-02T07:54:03;20.10;;;6.53;;
75234;SDS011;63817;51.228;-1.472;2023-07-02T07:56:29;22.20;;;6.57;;
75234;SDS011;63817;51.228;-1.472;2023-07-02T07:58:54;23.80;;;7.18;;
75234;SDS011;63817;51.228;-1.472;2023-07-02T08:01:20;20.17;;;6.30;;
75234;SDS011;63817;51.228;-1.472;2023-07-02T08:03:45;17.65;;;6.57;;
75234;SDS011;63817;51.228;-1.472;2023-07-02T08:06:11;17.23;;;6.78;;
75234;SDS011;63817;51.228;-1.472;2023-07-02T08:08:37;17.10;;;6.22;;
75234;SDS011;63817;51.228;-1.472;2023-07-02T08:11:02;21.38;;;6.55;;
75234;SDS011;63817;51.228;-1.472;2023-07-02T08:13:27;16.35;;;6.07;;
75234;SDS011;63817;51.228;-1.472;2023-07-02T08:15:53;15.80;;;6.25;;
75234;SDS011;63817;51.228;-1.472;2023-07-02T08:18:18;13.23;;;4.97;;
75234;SDS011;63817;51.228;-1.472;2023-07-02T08:20:44;23.15;;;6.18;;
75234;SDS011;63817;51.228;-1.472;2023-07-02T08:23:09;17.98;;;6.00;;
75234;SDS011;63817;51.228;-1.472;2023-07-02T08:25:34;13.90;;;5.35;;
75234;SDS011;63817;51.228;-1.472;2023-07-02T08:28:00;14.90;;;5.45;;
75234;SDS011;63817;51.228;-1.472;2023-07-02T08:30:25;14.27;;;4.45;;
75234;SDS011;63817;51.228;-1.472;2023-07-02T08:32:50;14.18;;;5.28;;
75234;SDS011;63817;51.228;-1.472;2023-07-02T08:35:19;10.40;;;4.07;;
75234;SDS011;63817;51.228;-1.472;2023-07-02T08:37:44;17.98;;;4.90;;
75234;SDS011;63817;51.228;-1.472;2023-07-02T08:40:16;9.90;;;4.28;;
75234;SDS011;63817;51.228;-1.472;2023-07-02T08:42:43;12.70;;;4.40;;
75234;SDS011;63817;51.228;-1.472;2023-07-02T08:45:10;12.65;;;3.90;;
75234;SDS011;63817;51.228;-1.472;2023-07-02T08:47:37;14.75;;;4.45;;
75234;SDS011;63817;51.228;-1.472;2023-07-02T08:50:03;12.32;;;4.45;;
75234;SDS011;63817;51.228;-1.472;2023-07-02T08:52:30;13.90;;;4.15;;
75234;SDS011;63817;51.228;-1.472;2023-07-02T08:54:55;14.38;;;4.20;;
75234;SDS011;63817;51.228;-1.472;2023-07-02T08:57:20;12.52;;;4.20;;
75234;SDS011;63817;51.228;-1.472;2023-07-02T08:59:46;13.50;;;4.10;;
75234;SDS011;63817;51.228;-1.472;2023-07-02T09:02:14;12.50;;;3.70;;
75234;SDS011;63817;51.228;-1.472;2023-07-02T09:04:39;17.13;;;4.35;;
75234;SDS011;63817;51.228;-1.472;2023-07-02T09:07:05;10.05;;;3.40;;
75234;SDS011;63817;51.228;-1.472;2023-07-02T09:09:32;10.85;;;3.58;;
75234;SDS011;63817;51.228;-1.472;2023-07-02T09:11:58;10.93;;;3.50;;
75234;SDS011;63817;51.228;-1.472;2023-07-02T09:14:30;9.88;;;3.67;;
75234;SDS011;63817;51.228;-1.472;2023-07-02T09:17:06;14.57;;;4.75;;
75234;SDS011;63817;51.228;-1.472;2023-07-02T09:19:33;14.20;;;4.40;;
75234;SDS011;63817;51.228;-1.472;2023-07-02T09:21:59;14.73;;;4.88;;
75234;SDS011;63817;51.228;-1.472;2023-07-02T09:24:26;16.52;;;4.57;;
75234;SDS011;63817;51.228;-1.472;2023-07-02T09:26:55;17.70;;;4.85;;
75234;SDS011;63817;51.228;-1.472;2023-07-02T09:29:23;12.35;;;3.85;;
75234;SDS011;63817;51.228;-1.472;2023-07-02T09:31:49;15.60;;;4.30;;
75234;SDS011;63817;51.228;-1.472;2023-07-02T09:34:15;9.18;;;3.88;;
75234;SDS011;63817;51.228;-1.472;2023-07-02T09:36:41;12.27;;;4.05;;
75234;SDS011;63817;51.228;-1.472;2023-07-02T09:39:29;12.80;;;4.72;;
75234;SDS011;63817;51.228;-1.472;2023-07-02T09:41:57;11.02;;;3.85;;
75234;SDS011;63817;51.228;-1.472;2023-07-02T09:44:27;10.73;;;3.78;;
75234;SDS011;63817;51.228;-1.472;2023-07-02T09:49:22;14.88;;;4.03;;
75234;SDS011;63817;51.228;-1.472;2023-07-02T09:51:48;13.57;;;3.65;;
75234;SDS011;63817;51.228;-1.472;2023-07-02T09:54:14;15.63;;;4.60;;
75234;SDS011;63817;51.228;-1.472;2023-07-02T09:56:40;13.50;;;4.47;;
75234;SDS011;63817;51.228;-1.472;2023-07-02T09:59:05;13.43;;;3.60;;
75234;SDS011;63817;51.228;-1.472;2023-07-02T10:01:31;13.55;;;3.85;;
75234;SDS011;63817;51.228;-1.472;2023-07-02T10:03:56;11.82;;;3.55;;
75234;SDS011;63817;51.228;-1.472;2023-07-02T10:06:22;14.70;;;4.30;;
75234;SDS011;63817;51.228;-1.472;2023-07-02T10:08:56;18.30;;;4.43;;
75234;SDS011;63817;51.228;-1.472;2023-07-02T10:11:32;13.18;;;4.32;;
75234;SDS011;63817;51.228;-1.472;2023-07-02T10:14:01;13.10;;;3.72;;
75234;SDS011;63817;51.228;-1.472;2023-07-02T10:16:26;18.85;;;4.28;;
75234;SDS011;63817;51.228;-1.472;2023-07-02T10:18:55;14.73;;;3.90;;
75234;SDS011;63817;51.228;-1.472;2023-07-02T10:21:20;14.68;;;3.88;;
75234;SDS011;63817;51.228;-1.472;2023-07-02T10:23:46;13.77;;;4.05;;
75234;SDS011;63817;51.228;-1.472;2023-07-02T10:26:13;16.67;;;3.95;;
75234;SDS011;63817;51.228;-1.472;2023-07-02T10:28:41;15.63;;;4.10;;
75234;SDS011;63817;51.228;-1.472;2023-07-02T10:31:19;11.38;;;3.85;;
75234;SDS011;63817;51.228;-1.472;2023-07-02T10:33:46;17.83;;;4.30;;
75234;SDS011;63817;51.228;-1.472;2023-07-02T10:36:22;22.20;;;4.95;;
75234;SDS011;63817;51.228;-1.472;2023-07-02T10:38:49;21.80;;;4.55;;
75234;SDS011;63817;51.228;-1.472;2023-07-02T10:41:28;16.13;;;4.35;;
75234;SDS011;63817;51.228;-1.472;2023-07-02T10:43:54;17.13;;;4.53;;
75234;SDS011;63817;51.228;-1.472;2023-07-02T10:46:29;15.02;;;4.43;;
75234;SDS011;63817;51.228;-1.472;2023-07-02T10:48:55;18.00;;;4.28;;
75234;SDS011;63817;51.228;-1.472;2023-07-02T10:51:21;16.80;;;5.05;;
75234;SDS011;63817;51.228;-1.472;2023-07-02T10:53:59;21.15;;;4.60;;
75234;SDS011;63817;51.228;-1.472;2023-07-02T10:56:28;17.67;;;5.43;;
75234;SDS011;63817;51.228;-1.472;2023-07-02T10:58:54;21.42;;;4.60;;
75234;SDS011;63817;51.228;-1.472;2023-07-02T11:01:29;17.52;;;4.15;;
75234;SDS011;63817;51.228;-1.472;2023-07-02T11:03:57;17.65;;;4.28;;
75234;SDS011;63817;51.228;-1.472;2023-07-02T11:06:24;21.60;;;4.43;;
75234;SDS011;63817;51.228;-1.472;2023-07-02T11:08:50;20.00;;;4.70;;
75234;SDS011;63817;51.228;-1.472;2023-07-02T11:11:16;24.38;;;4.80;;
75234;SDS011;63817;51.228;-1.472;2023-07-02T11:13:45;23.40;;;5.55;;
75234;SDS011;63817;51.228;-1.472;2023-07-02T11:16:22;20.45;;;4.68;;
75234;SDS011;63817;51.228;-1.472;2023-07-02T11:18:51;16.60;;;4.53;;
75234;SDS011;63817;51.228;-1.472;2023-07-02T11:21:36;21.80;;;5.00;;
75234;SDS011;63817;51.228;-1.472;2023-07-02T11:24:02;17.60;;;4.95;;
75234;SDS011;63817;51.228;-1.472;2023-07-02T11:26:38;17.90;;;5.03;;
75234;SDS011;63817;51.228;-1.472;2023-07-02T11:29:06;23.30;;;4.45;;
75234;SDS011;63817;51.228;-1.472;2023-07-02T11:31:35;17.63;;;4.82;;
75234;SDS011;63817;51.228;-1.472;2023-07-02T11:34:00;20.13;;;4.85;;
75234;SDS011;63817;51.228;-1.472;2023-07-02T11:36:26;21.88;;;5.10;;
75234;SDS011;63817;51.228;-1.472;2023-07-02T11:38:52;16.63;;;5.03;;
75234;SDS011;63817;51.228;-1.472;2023-07-02T11:41:19;16.48;;;4.32;;
75234;SDS011;63817;51.228;-1.472;2023-07-02T11:43:45;21.60;;;4.82;;
75234;SDS011;63817;51.228;-1.472;2023-07-02T11:46:11;22.05;;;4.30;;
75234;SDS011;63817;51.228;-1.472;2023-07-02T11:48:36;19.98;;;5.75;;
75234;SDS011;63817;51.228;-1.472;2023-07-02T11:51:01;17.98;;;4.07;;
75234;SDS011;63817;51.228;-1.472;2023-07-02T11:53:27;18.50;;;3.92;;
75234;SDS011;63817;51.228;-1.472;2023-07-02T11:55:52;22.95;;;5.53;;
75234;SDS011;63817;51.228;-1.472;2023-07-02T11:58:18;16.45;;;4.32;;
75234;SDS011;63817;51.228;-1.472;2023-07-02T12:00:43;18.73;;;4.18;;
75234;SDS011;63817;51.228;-1.472;2023-07-02T12:03:08;17.85;;;3.47;;
75234;SDS011;63817;51.228;-1.472;2023-07-02T12:05:35;11.32;;;3.42;;
75234;SDS011;63817;51.228;-1.472;2023-07-02T12:08:01;14.77;;;3.75;;
75234;SDS011;63817;51.228;-1.472;2023-07-02T12:10:27;16.48;;;4.05;;
75234;SDS011;63817;51.228;-1.472;2023-07-02T12:12:53;18.67;;;3.75;;
75234;SDS011;63817;51.228;-1.472;2023-07-02T12:15:18;20.15;;;4.32;;
75234;SDS011;63817;51.228;-1.472;2023-07-02T12:17:43;12.20;;;4.10;;
75234;SDS011;63817;51.228;-1.472;2023-07-02T12:20:09;12.25;;;3.40;;
75234;SDS011;63817;51.228;-1.472;2023-07-02T12:22:35;12.45;;;2.95;;
75234;SDS011;63817;51.228;-1.472;2023-07-02T12:25:00;10.38;;;3.55;;
75234;SDS011;63817;51.228;-1.472;2023-07-02T12:27:26;11.70;;;3.78;;
75234;SDS011;63817;51.228;-1.472;2023-07-02T12:29:52;16.30;;;4.32;;
75234;SDS011;63817;51.228;-1.472;2023-07-02T12:32:18;16.10;;;3.50;;
75234;SDS011;63817;51.228;-1.472;2023-07-02T12:34:43;11.48;;;3.60;;
75234;SDS011;63817;51.228;-1.472;2023-07-02T12:37:08;19.13;;;3.83;;
75234;SDS011;63817;51.228;-1.472;2023-07-02T12:39:34;14.25;;;4.32;;
75234;SDS011;63817;51.228;-1.472;2023-07-02T12:41:59;17.48;;;3.92;;
75234;SDS011;63817;51.228;-1.472;2023-07-02T12:44:25;18.27;;;3.95;;
75234;SDS011;63817;51.228;-1.472;2023-07-02T12:46:50;19.88;;;4.32;;
75234;SDS011;63817;51.228;-1.472;2023-07-02T12:49:16;16.05;;;3.70;;
75234;SDS011;63817;51.228;-1.472;2023-07-02T12:51:41;13.27;;;3.17;;
75234;SDS011;63817;51.228;-1.472;2023-07-02T12:54:06;12.35;;;3.80;;
75234;SDS011;63817;51.228;-1.472;2023-07-02T12:56:32;17.73;;;3.80;;
75234;SDS011;63817;51.228;-1.472;2023-07-02T12:58:57;17.83;;;3.97;;
75234;SDS011;63817;51.228;-1.472;2023-07-02T13:01:22;13.57;;;3.90;;
75234;SDS011;63817;51.228;-1.472;2023-07-02T13:03:49;17.38;;;3.75;;
75234;SDS011;63817;51.228;-1.472;2023-07-02T13:06:14;18.85;;;4.00;;
75234;SDS011;63817;51.228;-1.472;2023-07-02T13:08:39;16.45;;;3.72;;
75234;SDS011;63817;51.228;-1.472;2023-07-02T13:11:05;13.57;;;3.35;;
75234;SDS011;63817;51.228;-1.472;2023-07-02T13:13:32;18.63;;;4.32;;
75234;SDS011;63817;51.228;-1.472;2023-07-02T13:15:57;12.07;;;3.72;;
75234;SDS011;63817;51.228;-1.472;2023-07-02T13:18:23;21.13;;;4.82;;
75234;SDS011;63817;51.228;-1.472;2023-07-02T13:20:48;18.35;;;4.40;;
75234;SDS011;63817;51.228;-1.472;2023-07-02T13:23:14;15.90;;;3.55;;
75234;SDS011;63817;51.228;-1.472;2023-07-02T13:25:39;13.90;;;4.22;;
75234;SDS011;63817;51.228;-1.472;2023-07-02T13:28:05;12.40;;;4.07;;
75234;SDS011;63817;51.228;-1.472;2023-07-02T13:30:30;16.05;;;3.67;;
75234;SDS011;63817;51.228;-1.472;2023-07-02T13:32:56;16.33;;;4.30;;
75234;SDS011;63817;51.228;-1.472;2023-07-02T13:35:22;10.20;;;3.03;;
75234;SDS011;63817;51.228;-1.472;2023-07-02T13:37:48;14.80;;;3.40;;
75234;SDS011;63817;51.228;-1.472;2023-07-02T13:40:13;13.23;;;3.80;;
75234;SDS011;63817;51.228;-1.472;2023-07-02T13:42:40;14.15;;;3.75;;
75234;SDS011;63817;51.228;-1.472;2023-07-02T13:45:07;15.32;;;3.92;;
75234;SDS011;63817;51.228;-1.472;2023-07-02T13:47:34;19.73;;;3.78;;
75234;SDS011;63817;51.228;-1.472;2023-07-02T13:50:00;19.23;;;4.05;;
75234;SDS011;63817;51.228;-1.472;2023-07-02T13:52:26;11.43;;;3.45;;
75234;SDS011;63817;51.228;-1.472;2023-07-02T13:54:52;13.13;;;3.88;;
75234;SDS011;63817;51.228;-1.472;2023-07-02T13:57:17;19.75;;;4.63;;
75234;SDS011;63817;51.228;-1.472;2023-07-02T13:59:42;16.98;;;3.55;;
75234;SDS011;63817;51.228;-1.472;2023-07-02T14:02:08;15.18;;;3.65;;
75234;SDS011;63817;51.228;-1.472;2023-07-02T14:04:33;14.75;;;3.28;;
75234;SDS011;63817;51.228;-1.472;2023-07-02T14:06:59;16.77;;;3.90;;
75234;SDS011;63817;51.228;-1.472;2023-07-02T14:09:24;16.48;;;3.70;;
75234;SDS011;63817;51.228;-1.472;2023-07-02T14:11:50;15.13;;;3.95;;
75234;SDS011;63817;51.228;-1.472;2023-07-02T14:14:15;16.00;;;4.18;;